Time;durP1;ratioP1;P1;durP2;ratioP2;P2;SDS_P1;SDS_P2;PMS_P1;PMS_P2;Temp;Humidity;BMP_temperature;BMP_pressure;BME280_temperature;BME280_humidity;BME280_pressure;Samples;Min_cycle;Max_cycle;Signal;HPM_P1;HPM_P2
2023/05/15 00:00:29;;;;;;;27.20;17.45;;;10.50;99.90;;;;;;5018458;28;20045;-77
2023/05/15 00:02:55;;;;;;;25.42;18.35;;;10.50;99.90;;;;;;5027027;28;20377;-75
2023/05/15 00:05:21;;;;;;;26.92;19.20;;;10.50;99.90;;;;;;5029785;28;20040;-75
2023/05/15 00:07:47;;;;;;;28.40;18.92;;;10.50;99.90;;;;;;5026612;28;20045;-75
2023/05/15 00:10:13;;;;;;;29.27;20.13;;;10.50;99.90;;;;;;5028316;28;20325;-76
2023/05/15 00:12:39;;;;;;;28.48;19.92;;;10.50;99.90;;;;;;5014283;28;20057;-76
2023/05/15 00:15:08;;;;;;;25.80;19.00;;;10.50;99.90;;;;;;5016584;28;20053;-76
2023/05/15 00:17:33;;;;;;;26.50;18.45;;;10.50;99.90;;;;;;5030051;28;20059;-76
2023/05/15 00:20:06;;;;;;;27.52;19.63;;;10.50;99.90;;;;;;5031794;28;20396;-76
2023/05/15 00:22:32;;;;;;;29.50;19.73;;;10.50;99.90;;;;;;5034698;28;20118;-76
2023/05/15 00:24:58;;;;;;;28.83;18.83;;;10.40;99.90;;;;;;5032463;28;20365;-76
2023/05/15 00:27:29;;;;;;;27.77;19.58;;;10.40;99.90;;;;;;5016620;28;21010;-76
2023/05/15 00:29:55;;;;;;;25.98;19.20;;;10.40;99.90;;;;;;5031294;28;20040;-75
2023/05/15 00:32:21;;;;;;;28.02;19.55;;;10.40;99.90;;;;;;5029431;28;20041;-77
2023/05/15 00:34:47;;;;;;;30.35;20.13;;;10.40;99.90;;;;;;5032630;28;20070;-76
2023/05/15 00:37:13;;;;;;;28.20;18.80;;;10.30;99.90;;;;;;5023243;28;20041;-76
2023/05/15 00:39:39;;;;;;;25.20;17.80;;;10.40;99.90;;;;;;5034443;28;20590;-78
2023/05/15 00:42:06;;;;;;;23.15;16.90;;;10.40;99.90;;;;;;5033626;28;20160;-77
2023/05/15 00:44:33;;;;;;;22.88;15.32;;;10.40;99.90;;;;;;5031584;28;20044;-77
2023/05/15 00:47:01;;;;;;;17.95;14.48;;;10.40;99.90;;;;;;5021009;28;20044;-77
2023/05/15 00:49:28;;;;;;;17.75;12.13;;;10.40;99.90;;;;;;5010266;28;22135;-77
2023/05/15 00:51:56;;;;;;;17.65;11.52;;;10.50;99.90;;;;;;5021098;28;20075;-78
2023/05/15 00:54:23;;;;;;;13.50;10.52;;;10.50;99.90;;;;;;5003866;28;20076;-79
2023/05/15 00:56:50;;;;;;;18.08;11.35;;;10.60;99.90;;;;;;4997868;28;20110;-77
2023/05/15 00:59:17;;;;;;;17.25;11.07;;;10.60;99.90;;;;;;4999271;28;20080;-79
2023/05/15 01:01:44;;;;;;;15.23;10.18;;;10.70;99.90;;;;;;4981700;28;20045;-77
2023/05/15 01:04:10;;;;;;;15.48;10.52;;;10.70;99.90;;;;;;4996428;28;20049;-76
2023/05/15 01:06:37;;;;;;;15.57;11.00;;;10.60;99.90;;;;;;5032954;28;20474;-75
2023/05/15 01:09:04;;;;;;;13.68;10.52;;;10.70;99.90;;;;;;5016152;28;20135;-77
2023/05/15 01:11:35;;;;;;;15.00;10.60;;;10.70;99.90;;;;;;4999663;28;20095;-77
2023/05/15 01:14:05;;;;;;;15.98;11.07;;;10.70;99.90;;;;;;4988486;28;20053;-77
2023/05/15 01:16:35;;;;;;;14.68;11.55;;;10.70;99.90;;;;;;5017479;28;20037;-77
2023/05/15 01:19:02;;;;;;;17.02;12.55;;;10.60;99.90;;;;;;5014643;28;20515;-75
2023/05/15 01:21:34;;;;;;;14.45;12.30;;;10.60;99.90;;;;;;5010933;28;20535;-77
2023/05/15 01:24:24;;;;;;;17.25;12.95;;;10.60;99.90;;;;;;5013089;28;20705;-76
2023/05/15 01:27:01;;;;;;;14.90;11.55;;;10.60;99.90;;;;;;5023166;28;20052;-76
2023/05/15 01:29:34;;;;;;;19.15;12.80;;;10.50;99.90;;;;;;4995492;28;20079;-75
2023/05/15 01:32:11;;;;;;;18.63;12.02;;;10.50;99.90;;;;;;5012644;28;20049;-77
2023/05/15 01:35:10;;;;;;;17.42;12.95;;;10.50;99.90;;;;;;5016584;28;20500;-78
2023/05/15 01:37:43;;;;;;;15.98;11.90;;;10.50;99.90;;;;;;4994472;28;20097;-77
2023/05/15 01:40:10;;;;;;;15.07;11.65;;;10.50;99.90;;;;;;5011349;28;20041;-76
2023/05/15 01:42:40;;;;;;;14.10;11.90;;;10.50;99.90;;;;;;5026111;28;20737;-76
2023/05/15 01:45:10;;;;;;;15.45;11.80;;;10.50;99.90;;;;;;5017000;28;20163;-77
2023/05/15 01:47:55;;;;;;;13.85;11.18;;;10.50;99.90;;;;;;5015038;28;20049;-76
2023/05/15 01:50:23;;;;;;;15.85;11.23;;;10.50;99.90;;;;;;5008949;28;20045;-77
2023/05/15 01:52:53;;;;;;;14.48;11.88;;;10.40;99.90;;;;;;5012289;28;20180;-77
2023/05/15 01:55:22;;;;;;;14.25;10.25;;;10.40;99.90;;;;;;4995869;28;20611;-76
2023/05/15 01:57:51;;;;;;;14.18;11.50;;;10.40;99.90;;;;;;5012213;28;20045;-75
2023/05/15 02:00:17;;;;;;;18.80;12.57;;;10.40;99.90;;;;;;4996029;28;20061;-76
2023/05/15 02:02:45;;;;;;;17.70;13.38;;;10.40;99.90;;;;;;4994319;28;20059;-77
2023/05/15 02:05:13;;;;;;;17.30;13.15;;;10.30;99.90;;;;;;5001007;28;20147;-77
2023/05/15 02:07:42;;;;;;;17.08;13.20;;;10.30;99.90;;;;;;5008795;28;20120;-76
2023/05/15 02:10:10;;;;;;;19.33;13.13;;;11.00;99.90;;;;;;5012997;28;20068;-75
2023/05/15 02:12:37;;;;;;;19.95;14.48;;;10.30;99.90;;;;;;5026892;28;20056;-77
2023/05/15 02:15:03;;;;;;;17.00;13.20;;;10.30;99.90;;;;;;5024921;28;20380;-77
2023/05/15 02:17:29;;;;;;;17.83;13.60;;;10.20;99.90;;;;;;5010287;28;20041;-76
2023/05/15 02:19:55;;;;;;;16.08;12.57;;;10.20;99.90;;;;;;4998215;28;20055;-77
2023/05/15 02:22:21;;;;;;;18.48;13.48;;;10.20;99.90;;;;;;4993466;28;20049;-77
2023/05/15 02:24:47;;;;;;;15.90;12.68;;;10.20;99.90;;;;;;5013241;28;20060;-78
2023/05/15 02:27:25;;;;;;;18.63;12.90;;;10.20;99.90;;;;;;5007226;28;20060;-75
2023/05/15 02:30:38;;;;;;;20.95;14.27;;;10.20;99.90;;;;;;4995722;28;20127;-76
2023/05/15 02:33:36;;;;;;;17.48;14.23;;;10.20;99.90;;;;;;5012687;28;20663;-77
2023/05/15 02:36:06;;;;;;;19.40;13.23;;;10.20;99.90;;;;;;5012145;28;20127;-76
2023/05/15 02:38:41;;;;;;;16.38;13.55;;;10.20;99.90;;;;;;4994277;28;20050;-77
2023/05/15 02:41:10;;;;;;;16.30;11.80;;;10.20;99.90;;;;;;5015594;28;20142;-77
2023/05/15 02:43:39;;;;;;;19.48;12.82;;;10.20;99.90;;;;;;4994046;28;21446;-76
2023/05/15 02:46:06;;;;;;;15.30;11.10;;;10.30;99.90;;;;;;5010453;28;20132;-78
2023/05/15 02:48:34;;;;;;;13.52;9.85;;;10.30;99.90;;;;;;5012804;28;21309;-78
2023/05/15 02:51:00;;;;;;;12.45;10.77;;;10.30;99.90;;;;;;4979151;28;20084;-78
2023/05/15 02:53:29;;;;;;;14.75;10.90;;;10.40;99.90;;;;;;5011565;28;20056;-77
2023/05/15 02:55:56;;;;;;;14.07;10.43;;;10.30;99.90;;;;;;5010032;28;20049;-78
2023/05/15 02:58:26;;;;;;;12.93;8.88;;;10.40;99.90;;;;;;5023424;28;20395;-76
2023/05/15 03:00:52;;;;;;;14.02;12.25;;;10.30;99.90;;;;;;5008357;28;20459;-74
2023/05/15 03:03:18;;;;;;;16.13;11.48;;;10.40;99.90;;;;;;4998729;28;20099;-76
2023/05/15 03:05:43;;;;;;;15.60;11.40;;;10.30;99.90;;;;;;5007598;28;20049;-76
2023/05/15 03:08:09;;;;;;;13.15;11.23;;;10.30;99.90;;;;;;5007554;28;20398;-77
2023/05/15 03:10:35;;;;;;;17.00;11.90;;;10.30;99.90;;;;;;4978389;28;20076;-76
2023/05/15 03:13:01;;;;;;;19.67;11.25;;;10.30;99.90;;;;;;5010926;28;20053;-76
2023/05/15 03:15:27;;;;;;;15.70;11.52;;;10.20;99.90;;;;;;5009500;28;20052;-77
2023/05/15 03:17:53;;;;;;;14.15;11.43;;;10.30;99.90;;;;;;4990689;28;20048;-77
2023/05/15 03:20:19;;;;;;;15.85;11.48;;;10.20;99.90;;;;;;5012295;28;20056;-75
2023/05/15 03:22:44;;;;;;;16.00;11.57;;;10.20;99.90;;;;;;5010760;28;20490;-77
2023/05/15 03:25:11;;;;;;;16.52;12.32;;;10.20;99.90;;;;;;5006446;28;21759;-76
2023/05/15 03:27:38;;;;;;;16.58;12.38;;;10.20;99.90;;;;;;5008729;28;20056;-79
2023/05/15 03:30:05;;;;;;;14.50;12.93;;;10.10;99.90;;;;;;5006634;28;20052;-78
2023/05/15 03:32:30;;;;;;;14.40;11.63;;;10.10;99.90;;;;;;5013261;28;20110;-78
2023/05/15 03:34:56;;;;;;;14.27;11.43;;;10.10;99.90;;;;;;4992129;28;20045;-77
2023/05/15 03:37:23;;;;;;;14.40;11.55;;;10.10;99.90;;;;;;4997769;28;20057;-77
2023/05/15 03:39:48;;;;;;;16.48;11.70;;;10.10;99.90;;;;;;4990386;28;20041;-77
2023/05/15 03:42:14;;;;;;;15.63;11.55;;;10.00;99.90;;;;;;4999669;28;20041;-76
2023/05/15 03:44:40;;;;;;;17.95;11.25;;;10.00;99.90;;;;;;5005773;28;20167;-77
2023/05/15 03:47:06;;;;;;;15.02;11.10;;;10.00;99.90;;;;;;5009161;28;20403;-77
2023/05/15 03:49:40;;;;;;;16.27;11.70;;;10.00;99.90;;;;;;4995298;28;21975;-78
2023/05/15 03:52:07;;;;;;;16.70;11.85;;;9.90;99.90;;;;;;5009787;28;20087;-77
2023/05/15 03:54:33;;;;;;;15.45;11.40;;;9.90;99.90;;;;;;4991928;28;20164;-77
2023/05/15 03:56:59;;;;;;;15.15;10.68;;;9.90;99.90;;;;;;4990973;28;20080;-77
2023/05/15 03:59:25;;;;;;;15.52;11.75;;;9.90;99.90;;;;;;5008916;28;20453;-76
2023/05/15 04:01:50;;;;;;;17.65;12.35;;;9.80;99.90;;;;;;4997024;28;20475;-77
2023/05/15 04:04:16;;;;;;;14.15;10.63;;;9.80;99.90;;;;;;4990633;28;20053;-77
2023/05/15 04:06:42;;;;;;;15.10;11.55;;;9.50;99.90;;;;;;4973703;28;20050;-77
2023/05/15 04:09:08;;;;;;;16.63;11.88;;;9.80;99.90;;;;;;4990044;28;20043;-74
2023/05/15 04:11:34;;;;;;;15.50;11.00;;;9.80;99.90;;;;;;5014831;28;21835;-77
2023/05/15 04:14:00;;;;;;;14.18;11.38;;;9.90;99.90;;;;;;4991270;28;20191;-77
2023/05/15 04:16:26;;;;;;;13.38;11.70;;;9.90;99.90;;;;;;5023875;28;21138;-78
2023/05/15 04:18:52;;;;;;;12.68;11.25;;;10.00;99.90;;;;;;4993883;28;20950;-78
2023/05/15 04:21:18;;;;;;;15.52;11.32;;;10.00;99.90;;;;;;5015108;28;21452;-76
2023/05/15 04:23:44;;;;;;;18.95;12.95;;;10.10;99.90;;;;;;5003978;28;20053;-77
2023/05/15 04:26:10;;;;;;;17.67;13.75;;;10.20;99.90;;;;;;5003775;28;20922;-78
2023/05/15 04:28:42;;;;;;;15.50;12.55;;;10.20;99.90;;;;;;4979269;28;20045;-75
2023/05/15 04:31:07;;;;;;;13.40;11.05;;;10.30;99.90;;;;;;5011608;28;20057;-76
2023/05/15 04:33:33;;;;;;;12.80;11.27;;;10.30;99.90;;;;;;5006559;28;20248;-76
2023/05/15 04:35:59;;;;;;;16.08;12.07;;;10.30;99.90;;;;;;5002979;28;20063;-77
2023/05/15 04:38:25;;;;;;;14.07;12.23;;;10.40;99.90;;;;;;5006784;28;20148;-74
2023/05/15 04:40:51;;;;;;;16.67;11.30;;;10.40;99.90;;;;;;5007527;28;20060;-76
2023/05/15 04:43:16;;;;;;;13.52;11.27;;;10.40;99.90;;;;;;4988313;28;20396;-78
2023/05/15 04:45:42;;;;;;;13.48;11.15;;;10.40;99.90;;;;;;4995496;28;20991;-77
2023/05/15 04:48:08;;;;;;;12.40;10.38;;;10.50;99.90;;;;;;5004315;28;21822;-77
2023/05/15 04:50:34;;;;;;;11.10;9.27;;;10.50;99.90;;;;;;5013041;28;20138;-77
2023/05/15 04:52:59;;;;;;;11.07;8.68;;;10.60;99.90;;;;;;4971524;28;20334;-78
2023/05/15 04:55:25;;;;;;;12.48;10.50;;;10.60;99.90;;;;;;4991205;28;20470;-76
2023/05/15 04:57:51;;;;;;;13.57;10.00;;;10.60;99.90;;;;;;4999077;28;21105;-78
2023/05/15 05:00:17;;;;;;;12.65;9.30;;;10.60;99.90;;;;;;5022716;28;20150;-76
2023/05/15 05:02:43;;;;;;;9.88;7.90;;;10.60;99.90;;;;;;5010236;28;20049;-77
2023/05/15 05:05:09;;;;;;;13.93;8.70;;;10.60;99.90;;;;;;5000200;28;20072;-77
2023/05/15 05:07:35;;;;;;;12.32;9.15;;;11.20;99.90;;;;;;5019312;28;20881;-75
2023/05/15 05:10:01;;;;;;;12.07;9.13;;;10.60;99.90;;;;;;4983214;28;20045;-77
2023/05/15 05:12:27;;;;;;;12.68;11.18;;;10.70;99.90;;;;;;5007312;28;20056;-76
2023/05/15 05:14:54;;;;;;;13.07;11.15;;;10.70;99.90;;;;;;4996935;28;20053;-73
2023/05/15 05:17:20;;;;;;;14.45;11.65;;;10.80;99.90;;;;;;5011204;28;20045;-77
2023/05/15 05:19:45;;;;;;;11.25;9.82;;;10.80;99.90;;;;;;5025160;28;20106;-75
2023/05/15 05:22:11;;;;;;;12.13;10.32;;;10.90;99.90;;;;;;5015135;28;20365;-76
2023/05/15 05:24:37;;;;;;;10.23;9.05;;;10.90;99.90;;;;;;5024955;28;20076;-76
2023/05/15 05:27:05;;;;;;;11.38;9.07;;;10.40;99.90;;;;;;5031388;28;20045;-76
2023/05/15 05:29:31;;;;;;;13.20;9.02;;;11.00;99.90;;;;;;5007704;28;20053;-75
2023/05/15 05:31:57;;;;;;;12.45;9.73;;;11.00;99.90;;;;;;5020401;28;20041;-77
2023/05/15 05:34:23;;;;;;;12.77;10.60;;;11.10;99.90;;;;;;5015516;28;20101;-76
2023/05/15 05:36:50;;;;;;;12.50;9.52;;;11.20;99.90;;;;;;5026862;28;20049;-77
2023/05/15 05:39:16;;;;;;;13.27;10.07;;;11.20;99.90;;;;;;5016123;28;20426;-76
2023/05/15 05:41:42;;;;;;;10.77;9.68;;;11.30;99.90;;;;;;5025939;28;20519;-75
2023/05/15 05:44:08;;;;;;;10.48;8.45;;;11.30;99.90;;;;;;5030887;28;20045;-76
2023/05/15 05:46:34;;;;;;;14.38;9.35;;;11.30;99.90;;;;;;5017193;28;20052;-75
2023/05/15 05:49:00;;;;;;;10.52;8.85;;;11.30;99.90;;;;;;5015562;28;20048;-77
2023/05/15 05:51:35;;;;;;;13.15;9.00;;;12.10;99.90;;;;;;5030413;28;20131;-75
2023/05/15 05:54:07;;;;;;;11.27;9.30;;;11.30;99.90;;;;;;5026525;28;20084;-76
2023/05/15 05:56:33;;;;;;;9.27;8.13;;;11.30;99.90;;;;;;5018387;28;20475;-77
2023/05/15 05:59:00;;;;;;;10.52;7.93;;;11.40;99.90;;;;;;5015808;28;20053;-77
2023/05/15 06:01:29;;;;;;;10.93;7.38;;;11.40;99.90;;;;;;5028715;28;21028;-76
2023/05/15 06:03:55;;;;;;;9.90;7.25;;;11.40;99.90;;;;;;5031749;28;20284;-76
2023/05/15 06:06:21;;;;;;;9.65;7.95;;;11.40;99.90;;;;;;5027268;28;20385;-75
2023/05/15 06:08:46;;;;;;;10.27;7.88;;;11.40;99.90;;;;;;5017036;28;20068;-76
2023/05/15 06:11:12;;;;;;;13.10;9.35;;;11.50;99.90;;;;;;5016041;28;20042;-76
2023/05/15 06:13:39;;;;;;;11.40;8.85;;;11.60;99.90;;;;;;5021675;28;20110;-77
2023/05/15 06:16:05;;;;;;;10.85;8.75;;;11.60;99.90;;;;;;5032099;28;20041;-76
2023/05/15 06:18:31;;;;;;;12.15;8.65;;;11.80;99.90;;;;;;5017997;28;20142;-76
2023/05/15 06:20:59;;;;;;;11.63;8.57;;;11.80;99.90;;;;;;5027242;28;20486;-76
2023/05/15 06:23:25;;;;;;;10.02;8.15;;;11.90;99.90;;;;;;5012678;28;20408;-76
2023/05/15 06:25:51;;;;;;;9.30;7.00;;;12.10;99.90;;;;;;5013260;28;20057;-76
2023/05/15 06:28:17;;;;;;;10.63;8.02;;;12.10;99.90;;;;;;5013100;28;21185;-75
2023/05/15 06:30:42;;;;;;;11.25;8.93;;;12.20;99.90;;;;;;5023067;28;20057;-76
2023/05/15 06:33:08;;;;;;;13.43;9.50;;;12.30;99.90;;;;;;5033229;28;20373;-76
2023/05/15 06:35:35;;;;;;;10.65;9.45;;;12.40;99.90;;;;;;5030332;28;20049;-76
2023/05/15 06:38:01;;;;;;;10.32;8.00;;;12.50;99.90;;;;;;5012927;28;20443;-76
2023/05/15 06:40:33;;;;;;;10.48;8.07;;;12.50;99.90;;;;;;5031142;28;20409;-77
2023/05/15 06:43:00;;;;;;;9.35;7.82;;;12.60;99.90;;;;;;5013690;28;20036;-76
2023/05/15 06:45:25;;;;;;;10.80;8.05;;;12.70;99.90;;;;;;5012061;28;20534;-76
2023/05/15 06:47:54;;;;;;;10.82;7.53;;;12.80;99.90;;;;;;5026541;28;20049;-76
2023/05/15 06:50:20;;;;;;;9.30;7.18;;;12.90;99.90;;;;;;5011682;28;20159;-77
2023/05/15 06:52:47;;;;;;;11.00;7.20;;;12.60;99.90;;;;;;5009089;28;20083;-75
2023/05/15 06:55:13;;;;;;;9.15;7.10;;;13.20;99.90;;;;;;5013538;28;20057;-76
2023/05/15 06:57:38;;;;;;;8.38;6.43;;;13.40;99.90;;;;;;5013936;28;20057;-74
2023/05/15 07:00:05;;;;;;;8.63;7.75;;;13.50;99.90;;;;;;5012019;28;20051;-76
2023/05/15 07:02:30;;;;;;;8.80;7.90;;;13.60;99.90;;;;;;5008153;28;20053;-75
2023/05/15 07:04:57;;;;;;;10.10;7.60;;;13.70;99.90;;;;;;5023637;28;20045;-76
2023/05/15 07:07:25;;;;;;;9.93;7.57;;;13.80;99.90;;;;;;5009218;28;20124;-76
2023/05/15 07:09:51;;;;;;;10.55;8.30;;;13.80;99.90;;;;;;5017056;28;20144;-76
2023/05/15 07:12:16;;;;;;;12.48;8.65;;;13.80;99.90;;;;;;5014443;28;20067;-76
2023/05/15 07:14:42;;;;;;;9.38;8.38;;;13.90;99.90;;;;;;5022538;28;20048;-76
2023/05/15 07:17:08;;;;;;;9.25;7.43;;;13.80;99.90;;;;;;5023190;28;20518;-77
2023/05/15 07:19:34;;;;;;;10.30;7.65;;;13.90;99.90;;;;;;5013699;28;20075;-76
2023/05/15 07:22:06;;;;;;;7.88;6.82;;;13.80;99.90;;;;;;5025875;28;20396;-75
2023/05/15 07:24:32;;;;;;;10.70;7.07;;;13.70;99.90;;;;;;5025918;28;20055;-76
2023/05/15 07:26:58;;;;;;;8.88;7.45;;;13.70;99.90;;;;;;4995818;28;20045;-76
2023/05/15 07:29:24;;;;;;;8.90;7.45;;;13.70;99.90;;;;;;5026274;28;20049;-76
2023/05/15 07:31:50;;;;;;;10.88;7.20;;;13.60;99.90;;;;;;5027693;28;20049;-77
2023/05/15 07:34:15;;;;;;;8.95;7.68;;;13.70;99.90;;;;;;5012434;28;20076;-75
2023/05/15 07:36:41;;;;;;;7.65;6.95;;;13.70;99.90;;;;;;5021582;28;20045;-76
2023/05/15 07:39:08;;;;;;;7.45;6.72;;;13.60;99.90;;;;;;5012979;28;20049;-77
2023/05/15 07:41:34;;;;;;;9.60;7.30;;;13.60;99.90;;;;;;5023179;28;20125;-76
2023/05/15 07:43:59;;;;;;;9.32;8.27;;;13.50;99.90;;;;;;5013583;28;20483;-75
2023/05/15 07:46:25;;;;;;;9.48;7.70;;;13.50;99.90;;;;;;5023088;28;21818;-76
2023/05/15 07:48:51;;;;;;;9.38;7.25;;;13.60;99.90;;;;;;5013819;28;20055;-75
2023/05/15 07:51:17;;;;;;;8.75;7.70;;;13.60;99.90;;;;;;4997792;28;20033;-75
2023/05/15 07:53:43;;;;;;;10.05;7.97;;;13.60;99.90;;;;;;5022983;28;20115;-76
2023/05/15 07:56:09;;;;;;;9.60;7.47;;;13.60;99.90;;;;;;5024098;28;20047;-75
2023/05/15 07:58:37;;;;;;;8.38;6.97;;;13.60;99.90;;;;;;5013210;28;20761;-77
2023/05/15 08:01:03;;;;;;;7.57;6.18;;;13.70;99.90;;;;;;5029926;28;20171;-75
2023/05/15 08:03:30;;;;;;;11.50;8.30;;;13.70;99.90;;;;;;5015490;28;20518;-76
2023/05/15 08:05:56;;;;;;;205.07;117.47;;;13.70;99.90;;;;;;5008554;28;20049;-76
2023/05/15 08:08:22;;;;;;;75.85;48.72;;;13.70;99.90;;;;;;5019791;28;22125;-74
2023/05/15 08:10:48;;;;;;;218.23;117.93;;;13.70;99.90;;;;;;5010591;28;20152;-75
2023/05/15 08:13:14;;;;;;;229.57;129.73;;;13.50;99.90;;;;;;4989245;28;20056;-75
2023/05/15 08:15:40;;;;;;;20.42;14.98;;;13.50;99.90;;;;;;5018869;28;20053;-76
2023/05/15 08:18:10;;;;;;;21.85;16.52;;;13.40;99.90;;;;;;5016629;28;20051;-80
2023/05/15 08:20:37;;;;;;;30.92;22.27;;;13.40;99.90;;;;;;5019622;28;20061;-76
2023/05/15 08:23:03;;;;;;;47.22;36.47;;;13.30;99.90;;;;;;5014583;28;20760;-76
2023/05/15 08:25:29;;;;;;;19.30;14.63;;;13.30;99.90;;;;;;5016967;28;20052;-76
2023/05/15 08:27:55;;;;;;;13.77;11.45;;;13.20;99.90;;;;;;5019079;28;20053;-76
2023/05/15 08:30:24;;;;;;;8.68;7.45;;;13.20;99.90;;;;;;5014161;28;20052;-76
2023/05/15 08:32:50;;;;;;;9.05;7.60;;;13.20;99.90;;;;;;5023594;28;20056;-76
2023/05/15 08:35:16;;;;;;;10.40;7.60;;;13.20;99.90;;;;;;5019119;28;20045;-75
2023/05/15 08:37:45;;;;;;;8.40;6.47;;;13.10;99.90;;;;;;5020824;28;20045;-77
2023/05/15 08:40:11;;;;;;;8.50;6.65;;;13.10;99.90;;;;;;5024032;28;20168;-77
2023/05/15 08:42:37;;;;;;;7.68;6.90;;;13.10;99.90;;;;;;4998892;28;20045;-76
2023/05/15 08:45:04;;;;;;;11.50;7.97;;;13.10;99.90;;;;;;5022460;28;20097;-75
2023/05/15 08:47:34;;;;;;;10.43;8.63;;;13.20;99.90;;;;;;5025927;28;21242;-75
2023/05/15 08:50:14;;;;;;;9.30;7.70;;;13.20;99.90;;;;;;5031075;28;20048;-75
2023/05/15 08:52:41;;;;;;;8.95;7.72;;;13.30;99.90;;;;;;5016949;28;20045;-76
2023/05/15 08:55:09;;;;;;;7.97;7.18;;;13.30;99.90;;;;;;5026223;28;20099;-77
2023/05/15 08:57:36;;;;;;;10.15;7.57;;;13.50;99.90;;;;;;5028686;28;20053;-76
2023/05/15 09:00:08;;;;;;;7.30;6.60;;;13.50;99.90;;;;;;5043338;28;20056;-73
2023/05/15 09:02:38;;;;;;;8.40;6.80;;;13.60;99.90;;;;;;5033949;28;20108;-75
2023/05/15 09:05:08;;;;;;;8.93;7.25;;;13.70;99.90;;;;;;5041001;28;20412;-76
2023/05/15 09:07:34;;;;;;;9.88;7.15;;;13.80;99.90;;;;;;5048358;28;20060;-76
2023/05/15 09:10:14;;;;;;;7.93;7.15;;;13.80;99.90;;;;;;5021690;28;20380;-75
2023/05/15 09:12:49;;;;;;;8.52;6.90;;;13.80;99.90;;;;;;5019556;28;20056;-77
2023/05/15 09:15:17;;;;;;;8.43;6.93;;;13.90;99.90;;;;;;5034582;28;20056;-76
2023/05/15 09:17:44;;;;;;;8.63;6.63;;;13.90;99.90;;;;;;5033077;28;20053;-74
2023/05/15 09:20:34;;;;;;;10.60;7.00;;;13.80;99.90;;;;;;5036490;28;20787;-75
2023/05/15 09:23:03;;;;;;;7.65;6.55;;;13.70;99.90;;;;;;5017040;28;20053;-75
2023/05/15 09:25:41;;;;;;;12.98;8.00;;;13.70;99.90;;;;;;4996994;28;20064;-75
2023/05/15 09:28:23;;;;;;;8.50;6.88;;;13.60;99.90;;;;;;5010121;28;20041;-76
2023/05/15 09:30:55;;;;;;;9.70;6.95;;;13.50;99.90;;;;;;5029569;28;20060;-76
2023/05/15 09:33:35;;;;;;;8.77;6.68;;;13.50;99.90;;;;;;5021758;28;20128;-77
2023/05/15 09:36:02;;;;;;;6.75;6.15;;;13.60;99.90;;;;;;5042341;28;20045;-76
2023/05/15 09:38:31;;;;;;;9.25;6.60;;;13.50;99.90;;;;;;5015726;28;21134;-76
2023/05/15 09:41:06;;;;;;;9.32;6.15;;;13.40;99.90;;;;;;5031636;28;20052;-76
2023/05/15 09:43:38;;;;;;;8.50;6.32;;;13.30;99.90;;;;;;5015718;28;20049;-75
2023/05/15 09:46:05;;;;;;;7.32;5.97;;;13.40;99.90;;;;;;5020553;28;20045;-76
2023/05/15 09:48:31;;;;;;;9.18;6.78;;;13.30;99.90;;;;;;5027852;28;20056;-76
2023/05/15 09:50:57;;;;;;;8.75;7.18;;;13.30;99.90;;;;;;4997988;28;20060;-77
2023/05/15 09:53:23;;;;;;;8.43;6.95;;;13.40;99.90;;;;;;5028239;28;20057;-75
2023/05/15 09:55:51;;;;;;;6.75;5.95;;;13.40;99.90;;;;;;5017994;28;20091;-77
2023/05/15 09:58:17;;;;;;;8.13;6.63;;;13.50;99.90;;;;;;5011873;28;20056;-75
2023/05/15 10:00:45;;;;;;;7.68;6.15;;;13.40;99.90;;;;;;4989596;28;20042;-76
2023/05/15 10:03:11;;;;;;;10.10;6.70;;;13.50;99.90;;;;;;5024535;28;20633;-75
2023/05/15 10:05:38;;;;;;;7.22;6.30;;;13.60;99.90;;;;;;5008675;28;20041;-76
2023/05/15 10:08:05;;;;;;;9.95;7.00;;;13.60;99.90;;;;;;5030519;28;20056;-75
2023/05/15 10:10:31;;;;;;;7.28;5.55;;;13.70;99.90;;;;;;5029956;28;20073;-75
2023/05/15 10:13:04;;;;;;;7.75;6.10;;;13.80;99.90;;;;;;5012597;28;20531;-76
2023/05/15 10:15:30;;;;;;;9.52;6.35;;;13.90;99.90;;;;;;5042053;28;20127;-76
2023/05/15 10:18:04;;;;;;;8.07;6.38;;;14.00;99.90;;;;;;5024259;28;20051;-75
2023/05/15 10:20:36;;;;;;;7.22;6.05;;;14.10;99.90;;;;;;5040208;28;20416;-76
2023/05/15 10:23:05;;;;;;;8.05;6.13;;;14.20;99.90;;;;;;5016060;28;20053;-75
2023/05/15 10:25:54;;;;;;;5.90;5.15;;;14.30;99.90;;;;;;5016037;28;20053;-75
2023/05/15 10:28:22;;;;;;;6.88;5.15;;;14.30;99.90;;;;;;5029778;28;20136;-76
2023/05/15 10:30:48;;;;;;;6.80;5.07;;;14.50;99.90;;;;;;5022895;28;20053;-75
2023/05/15 10:33:14;;;;;;;7.75;5.40;;;14.70;99.90;;;;;;5029321;28;20110;-75
2023/05/15 10:35:42;;;;;;;5.72;5.13;;;14.90;99.90;;;;;;5038722;28;20504;-76
2023/05/15 10:38:08;;;;;;;6.30;5.03;;;15.10;99.90;;;;;;5024251;28;20044;-76
2023/05/15 10:40:39;;;;;;;5.60;4.80;;;15.30;99.90;;;;;;5037859;28;20102;-76
2023/05/15 10:43:05;;;;;;;5.05;4.55;;;15.30;99.90;;;;;;5037007;28;20048;-76
2023/05/15 10:45:34;;;;;;;5.28;4.78;;;15.50;99.90;;;;;;5046057;28;20052;-76
2023/05/15 10:48:01;;;;;;;6.30;5.00;;;15.60;99.90;;;;;;5034032;28;20042;-73
2023/05/15 10:50:27;;;;;;;5.60;4.95;;;15.50;99.90;;;;;;5023030;28;20414;-75
2023/05/15 10:52:54;;;;;;;5.50;4.35;;;15.60;99.90;;;;;;5031779;28;20048;-77
2023/05/15 10:55:21;;;;;;;5.45;4.82;;;15.50;99.90;;;;;;5039597;28;20455;-76
2023/05/15 10:57:47;;;;;;;5.28;4.78;;;15.60;99.90;;;;;;5037410;28;20092;-76
2023/05/15 11:00:22;;;;;;;5.85;4.30;;;15.60;99.90;;;;;;5034727;28;20106;-75
2023/05/15 11:02:52;;;;;;;6.38;5.40;;;15.60;99.90;;;;;;5040207;28;20083;-75
2023/05/15 11:05:18;;;;;;;5.32;4.78;;;15.50;99.90;;;;;;5020988;28;20148;-75
2023/05/15 11:08:24;;;;;;;8.05;5.20;;;15.40;99.90;;;;;;5029356;28;20487;-75
2023/05/15 11:10:51;;;;;;;6.18;5.03;;;15.30;99.90;;;;;;5028646;28;20055;-76
2023/05/15 11:13:16;;;;;;;9.32;5.57;;;15.10;99.90;;;;;;5037385;28;20045;-76
2023/05/15 11:15:45;;;;;;;7.72;5.80;;;14.90;99.90;;;;;;5037341;28;21074;-76
2023/05/15 11:18:11;;;;;;;7.38;5.22;;;14.80;99.90;;;;;;5021717;28;20446;-75
2023/05/15 11:20:39;;;;;;;7.45;6.20;;;14.80;99.90;;;;;;5032822;28;20053;-76
2023/05/15 11:23:05;;;;;;;7.28;6.53;;;14.80;99.90;;;;;;5037809;28;20111;-75
2023/05/15 11:25:33;;;;;;;7.07;5.82;;;14.70;99.90;;;;;;5030165;28;20041;-76
2023/05/15 11:27:58;;;;;;;6.55;5.15;;;14.70;99.90;;;;;;5031345;28;20407;-75
2023/05/15 11:30:38;;;;;;;7.03;5.50;;;14.70;99.90;;;;;;5026778;28;20041;-76
2023/05/15 11:33:07;;;;;;;7.28;6.30;;;14.50;99.90;;;;;;5034321;28;20041;-76
2023/05/15 11:35:42;;;;;;;7.85;6.78;;;14.40;99.90;;;;;;5035023;28;20053;-75
2023/05/15 11:38:23;;;;;;;6.75;5.85;;;14.40;99.90;;;;;;5037571;28;20695;-76
2023/05/15 11:41:02;;;;;;;8.02;6.60;;;14.40;99.90;;;;;;5035788;28;20069;-76
2023/05/15 11:43:36;;;;;;;7.50;6.70;;;14.30;99.90;;;;;;5036144;28;20103;-76
2023/05/15 11:46:21;;;;;;;8.60;5.88;;;14.30;99.90;;;;;;5021533;28;20060;-76
2023/05/15 11:48:48;;;;;;;7.57;5.90;;;14.20;99.90;;;;;;5043229;28;20134;-75
2023/05/15 11:51:21;;;;;;;6.50;5.85;;;14.20;99.90;;;;;;5039167;28;20373;-75
2023/05/15 11:53:52;;;;;;;8.07;6.78;;;14.20;99.90;;;;;;5026795;28;20049;-75
2023/05/15 11:56:27;;;;;;;9.50;7.78;;;14.00;99.90;;;;;;5011971;28;20522;-75
2023/05/15 11:59:02;;;;;;;9.88;7.32;;;14.00;99.90;;;;;;5023656;28;20056;-74
2023/05/15 12:01:41;;;;;;;7.13;6.30;;;13.90;99.90;;;;;;5031712;28;20060;-74
2023/05/15 12:04:14;;;;;;;8.02;7.13;;;13.80;99.90;;;;;;5019627;28;20508;-74
2023/05/15 12:06:40;;;;;;;8.73;6.78;;;13.80;99.90;;;;;;5030943;28;20053;-76
2023/05/15 12:09:15;;;;;;;9.93;7.57;;;13.70;99.90;;;;;;5036994;28;20064;-74
2023/05/15 12:11:48;;;;;;;8.45;7.55;;;13.80;99.90;;;;;;5042398;28;20575;-75
2023/05/15 12:14:15;;;;;;;8.48;7.18;;;13.70;99.90;;;;;;5035154;28;20106;-76
2023/05/15 12:16:51;;;;;;;9.75;6.70;;;13.70;99.90;;;;;;5021999;28;20052;-74
2023/05/15 12:19:29;;;;;;;8.00;7.20;;;13.60;99.90;;;;;;5034859;28;20428;-75
2023/05/15 12:21:54;;;;;;;8.55;7.10;;;13.60;99.90;;;;;;5023210;28;20469;-75
2023/05/15 12:24:20;;;;;;;6.95;6.25;;;13.60;99.90;;;;;;5017954;28;20087;-75
2023/05/15 12:26:47;;;;;;;7.93;6.55;;;13.60;99.90;;;;;;5035496;28;20045;-75
2023/05/15 12:29:14;;;;;;;7.03;6.32;;;13.60;99.90;;;;;;5025379;28;20041;-75
2023/05/15 12:31:40;;;;;;;9.85;7.57;;;13.60;99.90;;;;;;5033767;28;20090;-76
2023/05/15 12:34:06;;;;;;;9.18;7.45;;;13.50;99.90;;;;;;5045702;28;20076;-76
2023/05/15 12:36:32;;;;;;;8.23;7.05;;;13.50;99.90;;;;;;5021554;28;20159;-76
2023/05/15 12:39:03;;;;;;;8.82;6.85;;;13.50;99.90;;;;;;5027572;28;20514;-77
2023/05/15 12:41:29;;;;;;;9.65;7.32;;;13.40;99.90;;;;;;5030624;28;21102;-75